Time;durP1;ratioP1;P1;durP2;ratioP2;P2;SDS_P1;SDS_P2;PMS_P1;PMS_P2;Temp;Humidity;BMP_temperature;BMP_pressure;BME280_temperature;BME280_humidity;BME280_pressure;Samples;Min_cycle;Max_cycle;Signal;HPM_P1;HPM_P2
2021/05/28 00:00:59;;;;;;;8.87;8.07;;;13.00;99.90;;;;;;5036265;28;20188;-84
2021/05/28 00:03:25;;;;;;;9.40;8.47;;;13.00;99.90;;;;;;5036868;28;20415;-84
2021/05/28 00:05:51;;;;;;;10.83;8.70;;;13.00;99.90;;;;;;5054650;28;20417;-83
2021/05/28 00:08:16;;;;;;;9.00;8.20;;;12.90;99.90;;;;;;5035863;28;20435;-83
2021/05/28 00:10:42;;;;;;;10.50;7.80;;;12.90;99.90;;;;;;5054575;28;20177;-83
2021/05/28 00:13:08;;;;;;;7.97;7.37;;;12.90;99.90;;;;;;5054037;28;20207;-83
2021/05/28 00:15:34;;;;;;;10.70;8.90;;;12.80;99.90;;;;;;5036431;28;20319;-83
2021/05/28 00:18:01;;;;;;;8.50;7.70;;;12.80;99.90;;;;;;5053806;28;20844;-83
2021/05/28 00:20:27;;;;;;;8.23;7.43;;;12.70;99.90;;;;;;5054290;28;20193;-83
2021/05/28 00:22:52;;;;;;;9.17;8.37;;;12.80;99.90;;;;;;5054388;28;20405;-83
2021/05/28 00:25:18;;;;;;;8.73;7.90;;;12.70;99.90;;;;;;5053419;28;20411;-83
2021/05/28 00:27:44;;;;;;;8.03;7.40;;;12.70;99.90;;;;;;5036567;28;20184;-84
2021/05/28 00:30:11;;;;;;;8.90;8.20;;;12.70;99.90;;;;;;5053242;28;20260;-83
2021/05/28 00:32:36;;;;;;;12.47;9.47;;;12.70;99.90;;;;;;5053548;28;20264;-83
2021/05/28 00:35:04;;;;;;;10.30;9.20;;;12.70;99.90;;;;;;5035299;28;20541;-84
2021/05/28 00:37:29;;;;;;;10.50;9.60;;;12.70;99.90;;;;;;5054021;28;20176;-84
2021/05/28 00:39:55;;;;;;;11.07;10.07;;;12.70;99.90;;;;;;5053712;28;20426;-83
2021/05/28 00:42:21;;;;;;;10.70;9.43;;;12.70;99.90;;;;;;5053617;28;20531;-83
2021/05/28 00:44:46;;;;;;;10.30;9.30;;;12.70;99.90;;;;;;5053769;28;20516;-83
2021/05/28 00:47:12;;;;;;;11.37;10.17;;;12.70;99.90;;;;;;5053282;28;20188;-83
2021/05/28 00:49:38;;;;;;;10.73;9.77;;;12.70;99.90;;;;;;5053766;28;20238;-83
2021/05/28 00:52:04;;;;;;;13.23;9.20;;;12.80;99.90;;;;;;5053167;28;20170;-84
2021/05/28 00:54:31;;;;;;;9.50;8.50;;;12.80;99.90;;;;;;5035875;28;20251;-83
2021/05/28 00:56:57;;;;;;;10.10;9.20;;;12.80;99.90;;;;;;5053598;28;20404;-84
2021/05/28 00:59:24;;;;;;;9.90;9.00;;;12.80;99.90;;;;;;5036000;28;20877;-84
2021/05/28 01:01:50;;;;;;;12.03;9.40;;;12.80;99.90;;;;;;5053587;28;20509;-83
2021/05/28 01:04:16;;;;;;;10.00;9.00;;;12.80;99.90;;;;;;5053245;28;20457;-83
2021/05/28 01:06:42;;;;;;;10.10;9.10;;;12.80;99.90;;;;;;5053454;28;20940;-83
2021/05/28 01:09:09;;;;;;;9.90;9.00;;;12.80;99.90;;;;;;5035326;28;20538;-83
2021/05/28 01:11:37;;;;;;;9.60;8.70;;;12.80;99.90;;;;;;5036088;28;20411;-83
2021/05/28 01:14:03;;;;;;;8.57;7.97;;;12.80;99.90;;;;;;5034725;28;20452;-83
2021/05/28 01:16:29;;;;;;;13.97;9.07;;;12.80;99.90;;;;;;5035391;28;20466;-83
2021/05/28 01:18:55;;;;;;;10.20;9.20;;;12.80;99.90;;;;;;5053274;28;20507;-83
2021/05/28 01:21:21;;;;;;;10.37;9.30;;;12.80;99.90;;;;;;5052681;28;20170;-83
2021/05/28 01:23:48;;;;;;;10.43;8.57;;;12.80;99.90;;;;;;5035405;28;20423;-83
2021/05/28 01:26:14;;;;;;;8.60;7.80;;;12.80;99.90;;;;;;5034782;28;20415;-83
2021/05/28 01:28:40;;;;;;;9.83;8.83;;;12.80;99.90;;;;;;5052824;28;20420;-83
2021/05/28 01:31:05;;;;;;;9.37;8.40;;;12.80;99.90;;;;;;5052430;28;20495;-83
2021/05/28 01:33:31;;;;;;;10.23;9.23;;;12.80;99.90;;;;;;5052888;28;20232;-83
2021/05/28 01:35:58;;;;;;;9.73;8.73;;;12.80;99.90;;;;;;5035473;28;20188;-84
2021/05/28 01:38:25;;;;;;;14.03;8.07;;;12.90;99.90;;;;;;5034292;28;20412;-84
2021/05/28 01:40:52;;;;;;;8.70;7.70;;;12.90;99.90;;;;;;5035067;28;20841;-84
2021/05/28 01:43:18;;;;;;;8.60;7.87;;;12.90;99.90;;;;;;5052236;28;20511;-84
2021/05/28 01:45:44;;;;;;;8.67;7.97;;;12.90;99.90;;;;;;5052745;28;20444;-84
2021/05/28 01:48:10;;;;;;;9.03;8.13;;;12.90;99.90;;;;;;5052174;28;20576;-84
2021/05/28 01:50:45;;;;;;;9.90;9.00;;;12.90;99.90;;;;;;5034971;28;20500;-84
2021/05/28 01:53:18;;;;;;;9.50;8.70;;;12.90;99.90;;;;;;5052000;28;20227;-83
2021/05/28 01:55:44;;;;;;;9.97;8.97;;;12.90;99.90;;;;;;5052616;28;20910;-83
2021/05/28 01:58:19;;;;;;;11.83;8.90;;;12.90;99.90;;;;;;5033942;28;20411;-83
2021/05/28 02:00:51;;;;;;;10.33;9.33;;;13.00;99.90;;;;;;5052610;28;20492;-83
2021/05/28 02:03:17;;;;;;;10.63;8.87;;;12.90;99.90;;;;;;5052043;28;20414;-83
2021/05/28 02:05:44;;;;;;;12.20;9.53;;;12.90;99.90;;;;;;5034762;28;20396;-83
2021/05/28 02:08:10;;;;;;;11.23;10.20;;;12.90;99.90;;;;;;5051912;28;20411;-83
2021/05/28 02:10:36;;;;;;;12.30;9.90;;;12.90;99.90;;;;;;5052607;28;20481;-83
2021/05/28 02:13:03;;;;;;;11.03;10.13;;;12.90;99.90;;;;;;5034436;28;20557;-86
2021/05/28 02:15:29;;;;;;;12.87;10.30;;;13.00;99.90;;;;;;5051954;28;20232;-83
2021/05/28 02:17:55;;;;;;;12.53;11.50;;;13.00;99.90;;;;;;5052420;28;20423;-83
2021/05/28 02:20:22;;;;;;;11.60;10.50;;;13.00;99.90;;;;;;5034102;28;20412;-83
2021/05/28 02:22:48;;;;;;;13.17;11.30;;;13.00;99.90;;;;;;5052342;28;20428;-83
2021/05/28 02:25:14;;;;;;;12.10;10.77;;;13.00;99.90;;;;;;5034004;28;20458;-84
2021/05/28 02:27:42;;;;;;;12.37;11.17;;;13.00;99.90;;;;;;5052406;28;20402;-83
2021/05/28 02:30:08;;;;;;;13.80;11.30;;;13.00;99.90;;;;;;5033722;28;20556;-83
2021/05/28 02:32:35;;;;;;;13.40;11.53;;;13.00;99.90;;;;;;5034482;28;20490;-83
2021/05/28 02:35:01;;;;;;;12.70;11.60;;;13.00;99.90;;;;;;5052149;28;20455;-83
2021/05/28 02:37:26;;;;;;;14.40;12.90;;;13.00;99.90;;;;;;5033848;28;20423;-83
2021/05/28 02:39:52;;;;;;;14.60;12.23;;;13.00;99.90;;;;;;5034450;28;20459;-83
2021/05/28 02:42:18;;;;;;;14.80;13.30;;;13.00;99.90;;;;;;5033880;28;20213;-83
2021/05/28 02:44:44;;;;;;;16.20;12.83;;;12.90;99.90;;;;;;5034751;28;20459;-83
2021/05/28 02:47:10;;;;;;;13.43;12.23;;;12.90;99.90;;;;;;5051537;28;20444;-83
2021/05/28 02:49:36;;;;;;;16.13;12.60;;;12.90;99.90;;;;;;5051721;28;20176;-83
2021/05/28 02:52:05;;;;;;;14.23;13.03;;;12.80;99.90;;;;;;5034384;28;20200;-83
2021/05/28 02:54:31;;;;;;;14.60;13.20;;;12.80;99.90;;;;;;5051973;28;20555;-83
2021/05/28 02:56:56;;;;;;;15.47;13.90;;;12.80;99.90;;;;;;5053728;28;20451;-83
2021/05/28 02:59:22;;;;;;;16.03;14.40;;;12.70;99.90;;;;;;5055383;28;20170;-83
2021/05/28 03:01:49;;;;;;;14.83;13.40;;;12.70;99.90;;;;;;5038090;28;20906;-83
2021/05/28 03:04:15;;;;;;;15.83;13.77;;;12.60;99.90;;;;;;5055180;28;20422;-83
2021/05/28 03:06:41;;;;;;;15.73;13.90;;;12.60;99.90;;;;;;5055737;28;20899;-84
2021/05/28 03:09:07;;;;;;;15.77;13.40;;;12.60;99.90;;;;;;5055166;28;20407;-86
2021/05/28 03:11:33;;;;;;;15.60;12.53;;;12.60;99.90;;;;;;5038076;28;20416;-84
2021/05/28 03:13:59;;;;;;;16.17;14.60;;;12.60;99.90;;;;;;5055568;28;20205;-84
2021/05/28 03:16:24;;;;;;;16.63;14.77;;;12.60;99.90;;;;;;5037254;28;20242;-83
2021/05/28 03:18:59;;;;;;;15.47;13.97;;;12.60;99.90;;;;;;5055284;28;20428;-83
2021/05/28 03:24:01;;;;;;;16.23;14.63;;;12.60;99.90;;;;;;5055349;28;20400;-82
2021/05/28 03:26:27;;;;;;;16.50;14.80;;;12.60;99.90;;;;;;5054754;28;20428;-83
2021/05/28 03:28:54;;;;;;;16.60;14.90;;;12.60;99.90;;;;;;5055381;28;20754;-82
2021/05/28 03:31:23;;;;;;;16.63;14.90;;;12.60;99.90;;;;;;5036987;28;20509;-84
2021/05/28 03:33:50;;;;;;;15.53;14.03;;;12.60;99.90;;;;;;5037584;28;20549;-86
2021/05/28 03:36:16;;;;;;;17.40;14.80;;;12.60;99.90;;;;;;5054986;28;20760;-90
2021/05/28 03:38:43;;;;;;;15.60;14.00;;;12.60;99.90;;;;;;5055784;28;20422;-90
2021/05/28 03:41:09;;;;;;;18.23;16.30;;;12.70;99.90;;;;;;5037225;28;20899;-90
2021/05/28 03:43:35;;;;;;;17.27;15.10;;;12.70;99.90;;;;;;5055110;28;20826;-90
2021/05/28 03:46:02;;;;;;;16.70;14.93;;;12.70;99.90;;;;;;5055006;28;20457;-90
2021/05/28 03:48:28;;;;;;;16.87;15.07;;;12.70;99.90;;;;;;5054626;28;20265;-89
2021/05/28 03:50:54;;;;;;;16.57;14.57;;;12.70;99.90;;;;;;5037633;28;20984;-90
2021/05/28 03:53:19;;;;;;;16.90;15.13;;;12.70;99.90;;;;;;5054728;28;20672;-90
2021/05/28 03:55:45;;;;;;;17.80;15.20;;;12.70;99.90;;;;;;5055148;28;20187;-89
2021/05/28 03:58:11;;;;;;;14.97;13.63;;;12.70;99.90;;;;;;5036898;28;20418;-90
2021/05/28 04:00:37;;;;;;;20.13;18.43;;;12.70;99.90;;;;;;5055032;28;20416;-89
2021/05/28 04:03:03;;;;;;;17.17;15.57;;;12.70;99.90;;;;;;5037308;28;20179;-89
2021/05/28 04:05:28;;;;;;;16.87;15.17;;;12.70;99.90;;;;;;5036680;28;20253;-89
2021/05/28 04:07:54;;;;;;;19.53;17.83;;;12.70;99.90;;;;;;5054916;28;20174;-89
2021/05/28 04:10:20;;;;;;;19.13;17.20;;;12.80;99.90;;;;;;5054107;28;20196;-90
2021/05/28 04:12:45;;;;;;;17.03;15.33;;;12.80;99.90;;;;;;5054847;28;20181;-90
2021/05/28 04:15:12;;;;;;;17.50;14.60;;;12.70;99.90;;;;;;5019614;28;20329;-89
2021/05/28 04:17:40;;;;;;;17.83;15.97;;;12.80;99.90;;;;;;5037520;28;20178;-89
2021/05/28 04:20:07;;;;;;;20.70;18.47;;;12.80;99.90;;;;;;5054754;28;20961;-89
2021/05/28 04:22:33;;;;;;;17.77;15.20;;;12.80;99.90;;;;;;5036411;28;20900;-90
2021/05/28 04:24:59;;;;;;;18.80;17.00;;;12.90;99.90;;;;;;5054547;28;20408;-90
2021/05/28 04:27:24;;;;;;;17.50;15.90;;;12.90;99.90;;;;;;5053766;28;20482;-91
2021/05/28 04:29:50;;;;;;;19.13;17.13;;;12.90;99.90;;;;;;5054673;28;20440;-90
2021/05/28 04:32:16;;;;;;;18.77;16.77;;;12.90;99.90;;;;;;5036160;28;20650;-90
2021/05/28 04:34:43;;;;;;;17.00;14.80;;;12.90;99.90;;;;;;5054370;28;20298;-90
2021/05/28 04:37:09;;;;;;;18.97;16.97;;;12.90;99.90;;;;;;5054738;28;20414;-90
2021/05/28 04:39:35;;;;;;;18.63;14.70;;;12.90;99.90;;;;;;5036987;28;20416;-90
2021/05/28 04:42:01;;;;;;;16.80;14.97;;;12.90;99.90;;;;;;5036785;28;20420;-90
2021/05/28 04:44:26;;;;;;;16.33;14.73;;;13.00;99.90;;;;;;5053817;28;20184;-90
2021/05/28 04:46:53;;;;;;;20.97;16.13;;;12.90;99.90;;;;;;5056791;28;20519;-89
2021/05/28 04:49:19;;;;;;;16.47;14.77;;;13.00;99.90;;;;;;5040366;28;20178;-90
2021/05/28 04:51:44;;;;;;;18.00;16.10;;;13.00;99.90;;;;;;5058614;28;20915;-90
2021/05/28 04:54:10;;;;;;;21.90;15.67;;;13.00;99.90;;;;;;5039921;28;20196;-90
2021/05/28 04:56:36;;;;;;;16.97;15.27;;;13.00;99.90;;;;;;5038275;28;20277;-89
2021/05/28 04:59:02;;;;;;;18.90;16.47;;;13.00;99.90;;;;;;5036379;28;20178;-89
2021/05/28 05:01:27;;;;;;;19.40;15.17;;;13.00;99.90;;;;;;5035698;28;20532;-89
2021/05/28 05:03:53;;;;;;;19.03;17.03;;;13.10;99.90;;;;;;5053785;28;20190;-90
2021/05/28 05:06:19;;;;;;;23.37;18.43;;;13.10;99.90;;;;;;5053622;28;20207;-89
2021/05/28 05:08:45;;;;;;;17.03;15.40;;;13.10;99.90;;;;;;5053762;28;20580;-89
2021/05/28 05:11:11;;;;;;;20.67;16.73;;;13.20;99.90;;;;;;5035934;28;20177;-89
2021/05/28 05:13:36;;;;;;;19.87;16.00;;;13.20;99.90;;;;;;5018906;28;20735;-91
2021/05/28 05:16:02;;;;;;;18.77;14.70;;;13.20;99.90;;;;;;5035420;28;20566;-89
2021/05/28 05:18:28;;;;;;;20.43;15.20;;;13.20;99.90;;;;;;5035314;28;20188;-89
2021/05/28 05:20:54;;;;;;;20.00;17.97;;;13.30;99.90;;;;;;5053147;28;20430;-90
2021/05/28 05:23:20;;;;;;;18.00;15.20;;;13.30;99.90;;;;;;5035297;28;20235;-89
2021/05/28 05:25:46;;;;;;;19.63;17.30;;;13.30;99.90;;;;;;5053471;28;20178;-89
2021/05/28 05:28:12;;;;;;;16.63;14.17;;;13.30;99.90;;;;;;5053402;28;20803;-89
2021/05/28 05:30:43;;;;;;;21.47;17.20;;;13.30;99.90;;;;;;5035508;28;20451;-89
2021/05/28 05:33:11;;;;;;;18.73;15.20;;;13.30;99.90;;;;;;5053124;28;20432;-89
2021/05/28 05:35:37;;;;;;;17.00;15.30;;;13.30;99.90;;;;;;5052852;28;20421;-90
2021/05/28 05:38:08;;;;;;;20.93;16.90;;;13.30;99.90;;;;;;5035466;28;20428;-90
2021/05/28 05:40:35;;;;;;;17.73;15.83;;;13.30;99.90;;;;;;5052458;28;20403;-89
2021/05/28 05:43:01;;;;;;;20.20;17.13;;;13.30;99.90;;;;;;5052825;28;20918;-89
2021/05/28 05:45:29;;;;;;;20.30;16.50;;;13.30;99.90;;;;;;5052613;28;20505;-89
2021/05/28 05:47:55;;;;;;;19.77;17.57;;;13.30;99.90;;;;;;5052723;28;20172;-90
2021/05/28 05:50:21;;;;;;;22.93;17.47;;;13.20;99.90;;;;;;5052650;28;20405;-89
2021/05/28 05:52:47;;;;;;;21.40;18.03;;;13.20;99.90;;;;;;5035499;28;20409;-89
2021/05/28 05:55:18;;;;;;;21.07;16.90;;;13.20;99.90;;;;;;5018498;28;20432;-91
2021/05/28 05:57:43;;;;;;;24.17;17.60;;;13.20;99.90;;;;;;5035003;28;20414;-89
2021/05/28 06:00:10;;;;;;;21.03;16.90;;;13.20;99.90;;;;;;5052914;28;20405;-89
2021/05/28 06:02:37;;;;;;;27.27;17.97;;;13.20;99.90;;;;;;5052372;28;20177;-89
2021/05/28 06:05:03;;;;;;;24.27;16.47;;;13.30;99.90;;;;;;5035131;28;20412;-89
2021/05/28 06:07:29;;;;;;;21.53;19.33;;;13.30;99.90;;;;;;5052380;28;20498;-89
2021/05/28 06:09:54;;;;;;;24.20;15.80;;;13.30;99.90;;;;;;5052816;28;20565;-89
2021/05/28 06:12:20;;;;;;;20.90;18.63;;;13.30;99.90;;;;;;5052171;28;20201;-90
2021/05/28 06:14:46;;;;;;;19.03;16.77;;;13.50;99.90;;;;;;5052090;28;20242;-89
2021/05/28 06:17:12;;;;;;;18.80;16.77;;;13.50;99.90;;;;;;5051874;28;20171;-89
2021/05/28 06:19:38;;;;;;;20.60;15.93;;;13.50;99.90;;;;;;5051253;28;20276;-89
2021/05/28 06:22:03;;;;;;;20.47;16.73;;;13.70;99.90;;;;;;5034170;28;20530;-89
2021/05/28 06:24:29;;;;;;;21.53;19.00;;;13.70;99.90;;;;;;5051601;28;20179;-89
2021/05/28 06:26:55;;;;;;;20.00;17.90;;;13.80;99.90;;;;;;5034055;28;20179;-90
2021/05/28 06:29:21;;;;;;;21.10;18.83;;;13.80;99.90;;;;;;5051137;28;20203;-89
2021/05/28 06:31:50;;;;;;;17.80;15.43;;;13.90;99.90;;;;;;5053009;28;20174;-89
2021/05/28 06:34:18;;;;;;;19.47;17.33;;;14.00;99.90;;;;;;5037204;28;20214;-93
2021/05/28 06:36:44;;;;;;;18.47;15.27;;;14.10;99.90;;;;;;5037456;28;20405;-89
2021/05/28 06:39:11;;;;;;;17.90;15.93;;;14.20;99.90;;;;;;5055192;28;20179;-89
2021/05/28 06:41:37;;;;;;;18.80;15.17;;;14.20;99.90;;;;;;5054957;28;20510;-89
2021/05/28 06:44:04;;;;;;;15.70;14.00;;;14.30;99.90;;;;;;5055296;28;20765;-89
2021/05/28 06:46:30;;;;;;;16.17;14.47;;;14.40;99.90;;;;;;5036799;28;20402;-89
2021/05/28 06:48:58;;;;;;;15.47;13.53;;;14.40;99.90;;;;;;5055060;28;20421;-89
2021/05/28 06:51:24;;;;;;;18.03;13.27;;;14.50;99.90;;;;;;5054951;28;20305;-89
2021/05/28 06:53:52;;;;;;;14.37;12.90;;;14.60;99.90;;;;;;5054919;28;20454;-88
2021/05/28 06:56:18;;;;;;;14.80;13.33;;;14.60;99.90;;;;;;5037184;28;20845;-89
2021/05/28 06:58:48;;;;;;;13.80;12.40;;;14.70;99.90;;;;;;5054837;28;20497;-88
2021/05/28 07:01:15;;;;;;;16.43;14.47;;;14.80;99.90;;;;;;5054715;28;20407;-89
2021/05/28 07:03:41;;;;;;;14.83;13.53;;;14.90;99.90;;;;;;5054586;28;20416;-89
2021/05/28 07:06:10;;;;;;;15.17;13.33;;;15.00;99.40;;;;;;5054921;28;20450;-89
2021/05/28 07:08:36;;;;;;;15.43;13.23;;;15.00;99.90;;;;;;5036539;28;20777;-89
2021/05/28 07:11:02;;;;;;;13.30;12.00;;;15.10;99.90;;;;;;5054617;28;20424;-89
2021/05/28 07:13:28;;;;;;;15.10;13.50;;;15.20;99.50;;;;;;5053838;28;20664;-89
2021/05/28 07:15:54;;;;;;;15.17;12.80;;;15.30;99.90;;;;;;5013906;28;1178869;-89
2021/05/28 07:18:20;;;;;;;12.67;11.40;;;15.40;99.90;;;;;;5038098;28;20184;-89
2021/05/28 07:20:47;;;;;;;12.90;10.83;;;15.50;99.70;;;;;;5038048;28;20181;-89
2021/05/28 07:23:18;;;;;;;12.00;10.80;;;15.60;99.00;;;;;;5055712;28;20416;-89
2021/05/28 07:25:44;;;;;;;12.53;11.23;;;15.70;99.00;;;;;;5055307;28;20401;-89
2021/05/28 07:28:12;;;;;;;13.57;12.37;;;15.70;99.40;;;;;;5037911;28;20459;-88
2021/05/28 07:30:38;;;;;;;12.97;11.77;;;15.70;98.80;;;;;;5055122;28;20405;-89
2021/05/28 07:33:04;;;;;;;11.83;10.80;;;15.60;98.20;;;;;;5055359;28;20730;-88
2021/05/28 07:35:30;;;;;;;10.60;9.30;;;15.60;98.60;;;;;;5037298;28;20177;-89
2021/05/28 07:37:55;;;;;;;12.47;11.20;;;15.60;99.50;;;;;;5037779;28;20434;-88
2021/05/28 07:40:22;;;;;;;15.73;14.07;;;15.50;99.90;;;;;;5037710;28;20185;-91
2021/05/28 07:42:48;;;;;;;16.60;11.77;;;15.40;99.90;;;;;;5054880;28;20174;-88
2021/05/28 07:45:15;;;;;;;12.43;10.23;;;15.30;99.90;;;;;;5037504;28;20945;-89
2021/05/28 07:47:41;;;;;;;12.50;11.30;;;15.20;99.90;;;;;;5037077;28;20422;-88
2021/05/28 07:50:08;;;;;;;12.00;11.00;;;15.10;99.90;;;;;;5055147;28;20404;-88
2021/05/28 07:52:34;;;;;;;15.90;12.30;;;15.10;99.90;;;;;;5036852;28;20481;-88
2021/05/28 07:55:01;;;;;;;13.37;11.80;;;15.10;99.90;;;;;;5054978;28;20462;-88
2021/05/28 07:57:26;;;;;;;13.27;11.50;;;15.00;99.90;;;;;;5054469;28;20743;-88
2021/05/28 07:59:52;;;;;;;12.33;11.10;;;15.00;99.90;;;;;;5055034;28;20411;-88
2021/05/28 08:02:18;;;;;;;11.97;10.90;;;15.00;99.90;;;;;;5055378;28;20509;-88
2021/05/28 08:04:45;;;;;;;14.50;13.13;;;15.00;99.90;;;;;;5054552;28;20177;-88
2021/05/28 08:07:11;;;;;;;18.57;14.67;;;15.00;99.90;;;;;;5054941;28;20406;-88
2021/05/28 08:09:39;;;;;;;14.27;12.97;;;15.00;99.90;;;;;;5020424;28;20789;-88
2021/05/28 08:12:08;;;;;;;15.80;13.37;;;14.90;99.90;;;;;;5037024;28;20403;-88
2021/05/28 08:14:35;;;;;;;14.87;13.67;;;14.90;99.90;;;;;;5036037;28;20220;-88
2021/05/28 08:17:01;;;;;;;13.10;11.87;;;15.00;99.90;;;;;;5055139;28;20490;-88
2021/05/28 08:19:27;;;;;;;16.10;14.53;;;15.00;99.90;;;;;;5036579;28;20478;-88
2021/05/28 08:21:52;;;;;;;14.80;13.50;;;15.10;99.90;;;;;;5054666;28;20243;-89
2021/05/28 08:24:18;;;;;;;14.43;13.10;;;15.10;99.90;;;;;;5036796;28;20517;-88
2021/05/28 08:26:46;;;;;;;15.17;13.77;;;15.00;99.90;;;;;;5053812;28;20388;-88
2021/05/28 08:29:12;;;;;;;12.53;11.33;;;15.20;99.90;;;;;;5036948;28;20177;-88
2021/05/28 08:31:38;;;;;;;13.60;12.30;;;15.30;99.90;;;;;;5054015;28;20411;-88
2021/05/28 08:34:06;;;;;;;12.47;11.17;;;15.60;99.90;;;;;;5054294;28;20205;-88
2021/05/28 08:36:31;;;;;;;12.23;11.13;;;15.80;99.90;;;;;;5053585;28;20178;-89
2021/05/28 08:39:00;;;;;;;11.27;10.20;;;15.90;99.80;;;;;;5054571;28;20764;-88
2021/05/28 08:41:26;;;;;;;9.00;8.20;;;16.00;99.20;;;;;;5053793;28;20175;-89
2021/05/28 08:43:52;;;;;;;9.53;8.70;;;16.20;98.40;;;;;;5054153;28;20398;-88
2021/05/28 08:46:21;;;;;;;10.80;9.70;;;16.30;98.10;;;;;;5053737;28;20425;-89
2021/05/28 08:48:50;;;;;;;11.40;10.40;;;16.30;97.80;;;;;;5053359;28;20499;-89
2021/05/28 08:51:16;;;;;;;10.43;9.40;;;16.30;96.90;;;;;;5036528;28;20425;-89
2021/05/28 08:53:42;;;;;;;11.20;10.20;;;16.30;96.00;;;;;;5053011;28;20835;-89
2021/05/28 08:56:09;;;;;;;11.67;10.77;;;16.20;96.00;;;;;;5035888;28;20421;-89
2021/05/28 08:58:35;;;;;;;11.13;10.10;;;16.40;97.20;;;;;;5035628;28;20421;-88
2021/05/28 09:01:02;;;;;;;10.60;8.23;;;16.60;98.30;;;;;;5053883;28;20423;-89
2021/05/28 09:03:29;;;;;;;13.10;9.43;;;16.80;96.20;;;;;;5053603;28;20502;-89
2021/05/28 09:06:18;;;;;;;10.70;9.70;;;17.10;95.20;;;;;;5053710;28;20404;-89
2021/05/28 09:08:45;;;;;;;8.50;7.87;;;17.30;94.90;;;;;;5027829;28;20729;-89
2021/05/28 09:11:18;;;;;;;10.63;8.73;;;17.60;94.80;;;;;;5053670;28;20491;-89
2021/05/28 09:13:47;;;;;;;8.17;7.47;;;17.80;93.40;;;;;;5035425;28;20546;-88
2021/05/28 09:16:15;;;;;;;8.43;7.50;;;17.80;93.80;;;;;;5035539;28;20495;-89
2021/05/28 09:18:49;;;;;;;9.77;8.97;;;17.80;92.80;;;;;;5035357;28;20416;-89
2021/05/28 09:21:24;;;;;;;10.80;8.73;;;17.80;93.00;;;;;;5053815;28;20439;-89
2021/05/28 09:23:53;;;;;;;7.80;7.20;;;17.90;93.60;;;;;;5034840;28;20903;-89
2021/05/28 09:26:24;;;;;;;6.47;6.00;;;18.00;91.50;;;;;;5035727;28;20466;-89
2021/05/28 09:28:51;;;;;;;7.83;7.33;;;18.10;91.10;;;;;;5053218;28;20396;-89
2021/05/28 09:31:25;;;;;;;7.17;6.60;;;18.10;91.30;;;;;;5035616;28;20819;-89
2021/05/28 09:33:53;;;;;;;6.03;5.53;;;18.20;90.80;;;;;;5052812;28;20501;-89
2021/05/28 09:36:25;;;;;;;6.53;6.03;;;18.30;90.80;;;;;;5053215;28;20400;-89
2021/05/28 09:38:56;;;;;;;7.73;7.10;;;18.20;90.60;;;;;;5053252;28;20423;-89
2021/05/28 09:41:41;;;;;;;7.37;6.70;;;18.10;90.30;;;;;;5053485;28;20442;-89
2021/05/28 09:44:13;;;;;;;7.70;7.20;;;18.00;90.50;;;;;;5053115;28;20422;-89
2021/05/28 09:46:59;;;;;;;8.20;7.60;;;18.00;90.40;;;;;;5018722;28;20424;-89
2021/05/28 09:49:27;;;;;;;11.67;8.67;;;17.90;91.30;;;;;;5053090;28;20817;-90
2021/05/28 09:52:13;;;;;;;8.40;7.57;;;18.00;92.30;;;;;;5052475;28;20392;-90
2021/05/28 09:55:07;;;;;;;7.10;6.60;;;18.10;91.90;;;;;;5052016;28;20456;-90
2021/05/28 09:57:36;;;;;;;9.47;8.93;;;18.40;92.80;;;;;;5052485;28;20396;-90
2021/05/28 10:00:09;;;;;;;7.40;6.70;;;18.50;90.10;;;;;;5052777;28;20408;-90
2021/05/28 10:02:42;;;;;;;6.83;6.23;;;18.60;90.30;;;;;;5034714;28;20474;-89
2021/05/28 10:05:11;;;;;;;7.03;6.43;;;18.90;90.50;;;;;;5034714;28;20466;-90
2021/05/28 10:07:37;;;;;;;9.03;8.30;;;19.20;90.30;;;;;;5034460;28;20436;-90
2021/05/28 10:10:09;;;;;;;6.57;5.97;;;19.40;90.30;;;;;;5052731;28;20471;-89
2021/05/28 10:12:40;;;;;;;8.60;8.00;;;19.60;88.20;;;;;;5052424;28;20492;-90
2021/05/28 10:15:12;;;;;;;7.57;6.97;;;19.80;90.60;;;;;;5052663;28;20503;-89
2021/05/28 10:17:55;;;;;;;7.70;6.97;;;19.90;85.00;;;;;;5053828;28;20761;-89
2021/05/28 10:20:24;;;;;;;7.13;6.27;;;19.80;84.50;;;;;;5053560;28;20424;-90
2021/05/28 10:22:54;;;;;;;6.90;6.40;;;19.60;84.20;;;;;;5052086;28;20458;-89
2021/05/28 10:25:20;;;;;;;8.27;7.67;;;19.40;85.80;;;;;;5034767;28;20799;-89
2021/05/28 10:27:56;;;;;;;8.40;7.07;;;19.20;86.00;;;;;;5053637;28;20409;-90
2021/05/28 10:30:27;;;;;;;8.10;7.30;;;19.20;87.80;;;;;;5052242;28;20423;-89
2021/05/28 10:33:15;;;;;;;8.07;5.97;;;19.40;89.80;;;;;;5051949;28;20426;-89
2021/05/28 10:35:49;;;;;;;7.53;6.80;;;19.60;88.60;;;;;;5052040;28;20404;-89
2021/05/28 10:38:30;;;;;;;7.10;6.60;;;19.60;80.00;;;;;;5052558;28;20791;-89
2021/05/28 10:41:25;;;;;;;6.10;5.60;;;19.80;82.70;;;;;;5051752;28;20424;-89
2021/05/28 10:43:53;;;;;;;6.80;6.30;;;19.90;82.50;;;;;;5051683;28;20477;-88
2021/05/28 10:46:20;;;;;;;5.63;5.10;;;20.10;80.30;;;;;;5052041;28;20908;-89
2021/05/28 10:48:45;;;;;;;7.70;7.10;;;20.30;83.90;;;;;;5051894;28;20506;-89
2021/05/28 10:51:15;;;;;;;8.37;7.67;;;20.60;78.10;;;;;;5052145;28;20927;-89
2021/05/28 10:54:01;;;;;;;8.10;7.40;;;20.50;78.20;;;;;;5051736;28;20296;-90
2021/05/28 10:56:36;;;;;;;7.77;7.27;;;20.60;77.00;;;;;;5034470;28;20506;-90
2021/05/28 10:59:14;;;;;;;7.00;6.50;;;20.70;76.80;;;;;;5052273;28;20454;-90
2021/05/28 11:01:51;;;;;;;7.90;6.77;;;20.80;75.80;;;;;;5034091;28;20507;-90
2021/05/28 11:04:23;;;;;;;8.30;7.00;;;20.90;77.80;;;;;;5034602;28;20414;-89
2021/05/28 11:06:55;;;;;;;7.27;6.57;;;21.00;73.90;;;;;;5051685;28;20395;-90
2021/05/28 11:09:50;;;;;;;7.83;7.13;;;21.00;71.70;;;;;;5034737;28;20750;-90
2021/05/28 11:12:36;;;;;;;7.37;6.70;;;20.90;73.30;;;;;;5052456;28;20397;-89
2021/05/28 11:15:13;;;;;;;8.77;8.17;;;21.00;73.70;;;;;;5030099;28;20516;-90
2021/05/28 11:18:00;;;;;;;7.80;7.20;;;21.00;70.50;;;;;;5033063;28;20413;-89
2021/05/28 11:20:35;;;;;;;8.17;7.40;;;21.10;70.50;;;;;;5034353;28;20432;-89
2021/05/28 11:23:08;;;;;;;7.97;7.47;;;21.20;66.90;;;;;;5035876;28;20483;-89
2021/05/28 11:25:47;;;;;;;7.87;7.27;;;21.20;64.00;;;;;;5035943;28;20401;-90
2021/05/28 11:28:14;;;;;;;7.50;7.00;;;21.30;68.20;;;;;;5036034;28;20401;-91
2021/05/28 11:30:48;;;;;;;7.80;7.20;;;21.40;68.60;;;;;;5034932;28;20413;-89
2021/05/28 11:33:33;;;;;;;7.30;6.70;;;21.50;68.20;;;;;;5018097;28;20495;-89
2021/05/28 11:36:00;;;;;;;6.73;6.33;;;21.60;68.80;;;;;;5034010;28;20428;-90
2021/05/28 11:38:36;;;;;;;7.50;7.00;;;21.60;65.50;;;;;;5034672;28;20508;-89
2021/05/28 11:41:02;;;;;;;6.70;6.30;;;21.70;64.60;;;;;;5035465;28;20389;-90
2021/05/28 11:43:35;;;;;;;6.13;5.73;;;21.60;64.20;;;;;;5035772;28;20475;-89
2021/05/28 11:46:02;;;;;;;7.20;6.40;;;21.70;65.30;;;;;;5036257;28;20404;-89
2021/05/28 11:48:28;;;;;;;6.50;6.00;;;21.90;66.40;;;;;;5036117;28;20406;-90
2021/05/28 11:50:58;;;;;;;6.37;5.90;;;21.90;60.90;;;;;;5038052;28;20479;-90
2021/05/28 11:53:33;;;;;;;6.33;5.83;;;22.00;63.40;;;;;;5038056;28;20471;-90
2021/05/28 11:55:59;;;;;;;6.00;5.60;;;22.00;66.70;;;;;;5037786;28;20487;-90
2021/05/28 11:58:32;;;;;;;5.40;5.10;;;22.20;66.90;;;;;;5035580;28;20520;-90
2021/05/28 12:00:58;;;;;;;5.13;4.80;;;22.30;67.20;;;;;;5033565;28;20408;-90
2021/05/28 12:03:25;;;;;;;5.40;5.00;;;22.40;63.00;;;;;;5035334;28;20433;-90
2021/05/28 12:05:52;;;;;;;5.67;5.37;;;22.60;62.60;;;;;;5033332;28;20428;-90
2021/05/28 12:08:21;;;;;;;6.10;5.70;;;22.60;60.50;;;;;;5035096;28;20408;-90
2021/05/28 12:10:55;;;;;;;5.50;5.10;;;22.50;59.00;;;;;;5034582;28;20416;-90
2021/05/28 12:13:25;;;;;;;6.50;6.10;;;22.50;58.90;;;;;;5034676;28;20512;-90
2021/05/28 12:15:58;;;;;;;6.67;6.27;;;22.30;58.20;;;;;;5045982;28;20460;-90
2021/05/28 12:18:30;;;;;;;5.97;5.60;;;22.20;57.50;;;;;;5037136;28;20453;-91
2021/05/28 12:21:08;;;;;;;6.50;6.10;;;22.30;59.10;;;;;;5036451;28;20404;-90
2021/05/28 12:23:44;;;;;;;5.10;4.70;;;22.30;58.40;;;;;;5054440;28;20938;-90
2021/05/28 12:26:28;;;;;;;8.40;7.73;;;22.30;57.70;;;;;;5054778;28;20392;-90
2021/05/28 12:28:58;;;;;;;4.90;4.60;;;22.40;62.60;;;;;;5052934;28;20401;-91
2021/05/28 12:31:30;;;;;;;5.03;4.63;;;22.40;60.30;;;;;;5036911;28;20396;-90
2021/05/28 12:34:05;;;;;;;7.67;7.17;;;22.30;56.20;;;;;;5054095;28;20545;-90
2021/05/28 12:36:39;;;;;;;4.93;4.63;;;22.10;54.90;;;;;;5054834;28;20400;-90
2021/05/28 12:39:10;;;;;;;5.10;4.60;;;22.20;58.90;;;;;;5036679;28;20412;-90
2021/05/28 12:41:38;;;;;;;6.30;5.97;;;22.30;58.50;;;;;;5054203;28;20416;-90
2021/05/28 12:44:05;;;;;;;6.80;6.50;;;22.10;52.30;;;;;;5053401;28;20413;-90